Keiyumaru — JL6541 — position and weather

sailwx.info

Track history (hours):
 
Tides and Currents Weather Stations Pressure Air Temp Water Temp Dewpoint Dewpoint Depression Visibility Wind Speed Wind Dir Waves Ship Positions

Keiyumaru

Last reported at 2018-Jun-12 21:33 UTC. Time now 2018-Jun-25 13:54 UTC.
Position N 34°40' E 134°25'.
Warning: this ship's position is 12 days out of date.

Length 81 m; draft 4.8 m.

Type: Cargo ship. MMSI: 431500561.

Date/timePositionNaut miles runAvg speedWind from/ knotsBaromVisibWave heightAir tempDewpointWater temp
2018-Jun-12 21:33N 34°40' E 134°25'311.7
2018-Jun-12 21:18N 34°41' E 134°28'412.0
2018-Jun-12 21:01N 34°42' E 134°32'  
2018-Jun-10 03:17N 34°43' E 134°36'  
2018-Jun-07 16:04N 34°21' E 134°26'111.6
2018-Jun-07 16:00N 34°21' E 134°27'1212.3
2018-Jun-07 15:02N 34°14' E 134°39'111.5
2018-Jun-07 14:59N 34°13' E 134°40'711.7
2018-Jun-07 14:23N 34°08' E 134°44'410.5
2018-Jun-07 14:00N 34°04' E 134°45'7 0.5
2018-Jun-06 22:47N 33°56' E 134°44'413.9
2018-Jun-06 22:30N 33°60' E 134°43'813.5
2018-Jun-06 21:56N 34°07' E 134°40'613.8
2018-Jun-06 21:30N 34°13' E 134°40'713.6
2018-Jun-06 21:00N 34°17' E 134°33'613.2
2018-Jun-06 20:31N 34°20' E 134°26'712.8
2018-Jun-06 19:58N 34°22' E 134°18'  
Track history (hours):
 
Tides and Currents Weather Stations Pressure Air Temp Water Temp Dewpoint Dewpoint Depression Visibility Wind Speed Wind Dir Waves Ship Positions

Keiyumaru

Last reported at 2018-Jun-12 21:33 UTC. Time now 2018-Jun-25 13:54 UTC.
Position N 34°40' E 134°25'.
Warning: this ship's position is 12 days out of date.

Length 81 m; draft 4.8 m.

Type: Cargo ship. MMSI: 431500561.

Date/timePositionNaut miles runAvg speedWind from/ knotsBaromVisibWave heightAir tempDewpointWater temp
2018-Jun-12 21:33N 34°40' E 134°25'311.7
2018-Jun-12 21:18N 34°41' E 134°28'412.0
2018-Jun-12 21:01N 34°42' E 134°32'  
2018-Jun-10 03:17N 34°43' E 134°36'  
2018-Jun-07 16:04N 34°21' E 134°26'111.6
2018-Jun-07 16:00N 34°21' E 134°27'1212.3
2018-Jun-07 15:02N 34°14' E 134°39'111.5
2018-Jun-07 14:59N 34°13' E 134°40'711.7
2018-Jun-07 14:23N 34°08' E 134°44'410.5
2018-Jun-07 14:00N 34°04' E 134°45'7 0.5
2018-Jun-06 22:47N 33°56' E 134°44'413.9
2018-Jun-06 22:30N 33°60' E 134°43'813.5
2018-Jun-06 21:56N 34°07' E 134°40'613.8
2018-Jun-06 21:30N 34°13' E 134°40'713.6
2018-Jun-06 21:00N 34°17' E 134°33'613.2
2018-Jun-06 20:31N 34°20' E 134°26'712.8
2018-Jun-06 19:58N 34°22' E 134°18'  

Dump ship's entire track history